METAR Formatted Surface Weather Observation
Issued by NWS

Home | Current Version | Previous Version | Text Only | Print | Product List | Glossary On
Versions: 1 2 3 4
000
SAUS45 KFGZ 222058 COR
MTRRQE
METAR KRQE 222053Z AUTO VRB03G18KT 10SM CLR 33/M02 A3037 RMK AO2
SLP142 T03281017 58012 TSNO



USA.gov is the U.S. government's official web portal to all federal, state and local government web resources and services.